sensor_id;sensor_type;location;lat;lon;timestamp;P1;durP1;ratioP1;P2;durP2;ratioP2
9473;SDS011;8865;47.636;7.692;2022-07-29T00:01:14;6.27;;;3.60;;
9473;SDS011;8865;47.636;7.692;2022-07-29T00:03:41;3.63;;;3.33;;
9473;SDS011;8865;47.636;7.692;2022-07-29T00:06:07;3.73;;;3.43;;
9473;SDS011;8865;47.636;7.692;2022-07-29T00:08:33;4.50;;;3.80;;
9473;SDS011;8865;47.636;7.692;2022-07-29T00:11:00;3.73;;;3.40;;
9473;SDS011;8865;47.636;7.692;2022-07-29T00:13:26;3.77;;;3.47;;
9473;SDS011;8865;47.636;7.692;2022-07-29T00:15:52;4.90;;;3.83;;
9473;SDS011;8865;47.636;7.692;2022-07-29T00:18:18;4.07;;;3.67;;
9473;SDS011;8865;47.636;7.692;2022-07-29T00:20:44;7.83;;;3.70;;
9473;SDS011;8865;47.636;7.692;2022-07-29T00:23:10;4.70;;;3.80;;
9473;SDS011;8865;47.636;7.692;2022-07-29T00:25:36;3.90;;;3.60;;
9473;SDS011;8865;47.636;7.692;2022-07-29T00:28:03;5.60;;;3.63;;
9473;SDS011;8865;47.636;7.692;2022-07-29T00:30:29;5.67;;;3.73;;
9473;SDS011;8865;47.636;7.692;2022-07-29T00:32:55;4.87;;;4.07;;
9473;SDS011;8865;47.636;7.692;2022-07-29T00:35:21;4.40;;;4.00;;
9473;SDS011;8865;47.636;7.692;2022-07-29T00:38:06;4.93;;;4.00;;
9473;SDS011;8865;47.636;7.692;2022-07-29T00:40:32;4.37;;;3.87;;
9473;SDS011;8865;47.636;7.692;2022-07-29T00:42:58;4.63;;;4.00;;
9473;SDS011;8865;47.636;7.692;2022-07-29T00:45:25;4.73;;;4.00;;
9473;SDS011;8865;47.636;7.692;2022-07-29T00:47:51;3.90;;;3.60;;
9473;SDS011;8865;47.636;7.692;2022-07-29T00:50:17;5.73;;;4.10;;
9473;SDS011;8865;47.636;7.692;2022-07-29T00:52:44;5.07;;;3.83;;
9473;SDS011;8865;47.636;7.692;2022-07-29T00:55:12;4.20;;;3.80;;
9473;SDS011;8865;47.636;7.692;2022-07-29T00:57:40;4.37;;;3.80;;
9473;SDS011;8865;47.636;7.692;2022-07-29T01:00:09;4.13;;;3.50;;
9473;SDS011;8865;47.636;7.692;2022-07-29T01:02:41;4.63;;;3.87;;
9473;SDS011;8865;47.636;7.692;2022-07-29T01:05:07;4.43;;;4.03;;
9473;SDS011;8865;47.636;7.692;2022-07-29T01:07:34;4.60;;;3.83;;
9473;SDS011;8865;47.636;7.692;2022-07-29T01:10:02;4.07;;;3.67;;
9473;SDS011;8865;47.636;7.692;2022-07-29T01:12:30;4.47;;;4.03;;
9473;SDS011;8865;47.636;7.692;2022-07-29T01:14:59;4.23;;;3.83;;
9473;SDS011;8865;47.636;7.692;2022-07-29T01:25:49;5.00;;;4.07;;
9473;SDS011;8865;47.636;7.692;2022-07-29T01:31:10;5.37;;;4.07;;
9473;SDS011;8865;47.636;7.692;2022-07-29T01:33:41;4.70;;;3.80;;
9473;SDS011;8865;47.636;7.692;2022-07-29T01:36:24;4.43;;;4.03;;
9473;SDS011;8865;47.636;7.692;2022-07-29T01:39:30;4.70;;;4.20;;
9473;SDS011;8865;47.636;7.692;2022-07-29T01:42:05;4.13;;;3.73;;
9473;SDS011;8865;47.636;7.692;2022-07-29T01:45:04;7.60;;;4.13;;
9473;SDS011;8865;47.636;7.692;2022-07-29T01:48:06;4.70;;;4.30;;
9473;SDS011;8865;47.636;7.692;2022-07-29T01:50:48;5.53;;;4.23;;
9473;SDS011;8865;47.636;7.692;2022-07-29T01:53:21;4.50;;;4.10;;
9473;SDS011;8865;47.636;7.692;2022-07-29T01:55:52;4.57;;;4.10;;
9473;SDS011;8865;47.636;7.692;2022-07-29T01:58:20;4.63;;;3.97;;
9473;SDS011;8865;47.636;7.692;2022-07-29T02:00:48;4.80;;;3.53;;
9473;SDS011;8865;47.636;7.692;2022-07-29T02:03:16;6.70;;;4.20;;
9473;SDS011;8865;47.636;7.692;2022-07-29T02:05:44;6.57;;;4.63;;
9473;SDS011;8865;47.636;7.692;2022-07-29T02:08:12;6.50;;;4.67;;
9473;SDS011;8865;47.636;7.692;2022-07-29T02:10:41;6.00;;;4.73;;
9473;SDS011;8865;47.636;7.692;2022-07-29T02:13:10;5.70;;;4.30;;
9473;SDS011;8865;47.636;7.692;2022-07-29T02:15:39;7.37;;;4.87;;
9473;SDS011;8865;47.636;7.692;2022-07-29T02:18:09;5.47;;;4.87;;
9473;SDS011;8865;47.636;7.692;2022-07-29T02:20:39;4.93;;;4.43;;
9473;SDS011;8865;47.636;7.692;2022-07-29T02:23:11;5.97;;;4.40;;
9473;SDS011;8865;47.636;7.692;2022-07-29T02:25:40;4.87;;;4.47;;
9473;SDS011;8865;47.636;7.692;2022-07-29T02:28:08;5.53;;;4.67;;
9473;SDS011;8865;47.636;7.692;2022-07-29T02:30:39;6.00;;;4.60;;
9473;SDS011;8865;47.636;7.692;2022-07-29T02:33:07;4.90;;;4.40;;
9473;SDS011;8865;47.636;7.692;2022-07-29T02:35:35;5.87;;;4.70;;
9473;SDS011;8865;47.636;7.692;2022-07-29T02:38:02;5.00;;;4.60;;
9473;SDS011;8865;47.636;7.692;2022-07-29T02:40:48;5.60;;;4.40;;
9473;SDS011;8865;47.636;7.692;2022-07-29T02:43:18;5.10;;;4.60;;
9473;SDS011;8865;47.636;7.692;2022-07-29T02:45:46;5.33;;;4.77;;
9473;SDS011;8865;47.636;7.692;2022-07-29T02:48:17;5.63;;;5.13;;
9473;SDS011;8865;47.636;7.692;2022-07-29T02:50:49;5.20;;;4.80;;
9473;SDS011;8865;47.636;7.692;2022-07-29T02:53:19;5.30;;;4.90;;
9473;SDS011;8865;47.636;7.692;2022-07-29T02:55:56;6.57;;;4.67;;
9473;SDS011;8865;47.636;7.692;2022-07-29T02:58:28;6.53;;;5.13;;
9473;SDS011;8865;47.636;7.692;2022-07-29T03:01:08;5.53;;;4.87;;
9473;SDS011;8865;47.636;7.692;2022-07-29T03:03:45;5.53;;;4.70;;
9473;SDS011;8865;47.636;7.692;2022-07-29T03:06:14;5.23;;;4.80;;
9473;SDS011;8865;47.636;7.692;2022-07-29T03:08:42;6.40;;;5.07;;
9473;SDS011;8865;47.636;7.692;2022-07-29T03:11:11;5.90;;;5.40;;
9473;SDS011;8865;47.636;7.692;2022-07-29T03:13:38;5.63;;;5.23;;
9473;SDS011;8865;47.636;7.692;2022-07-29T03:16:05;5.73;;;5.07;;
9473;SDS011;8865;47.636;7.692;2022-07-29T03:18:33;5.87;;;5.20;;
9473;SDS011;8865;47.636;7.692;2022-07-29T03:20:59;5.57;;;5.17;;
9473;SDS011;8865;47.636;7.692;2022-07-29T03:23:26;6.03;;;5.53;;
9473;SDS011;8865;47.636;7.692;2022-07-29T03:25:53;5.47;;;4.97;;
9473;SDS011;8865;47.636;7.692;2022-07-29T03:28:20;6.30;;;5.53;;
9473;SDS011;8865;47.636;7.692;2022-07-29T03:30:47;7.27;;;5.40;;
9473;SDS011;8865;47.636;7.692;2022-07-29T03:33:14;6.03;;;5.43;;
9473;SDS011;8865;47.636;7.692;2022-07-29T03:35:41;5.77;;;5.17;;
9473;SDS011;8865;47.636;7.692;2022-07-29T03:38:07;5.33;;;4.80;;
9473;SDS011;8865;47.636;7.692;2022-07-29T03:40:34;6.40;;;5.30;;
9473;SDS011;8865;47.636;7.692;2022-07-29T03:43:04;5.20;;;4.80;;
9473;SDS011;8865;47.636;7.692;2022-07-29T03:45:32;9.50;;;4.70;;
9473;SDS011;8865;47.636;7.692;2022-07-29T03:48:07;5.00;;;4.60;;
9473;SDS011;8865;47.636;7.692;2022-07-29T03:50:35;4.73;;;4.27;;
9473;SDS011;8865;47.636;7.692;2022-07-29T03:53:02;7.13;;;5.23;;
9473;SDS011;8865;47.636;7.692;2022-07-29T03:55:30;5.03;;;4.63;;
9473;SDS011;8865;47.636;7.692;2022-07-29T03:58:02;5.17;;;4.77;;
9473;SDS011;8865;47.636;7.692;2022-07-29T04:00:28;5.23;;;4.77;;
9473;SDS011;8865;47.636;7.692;2022-07-29T04:02:56;6.37;;;4.93;;
9473;SDS011;8865;47.636;7.692;2022-07-29T04:05:22;6.30;;;5.00;;
9473;SDS011;8865;47.636;7.692;2022-07-29T04:07:48;5.40;;;4.90;;
9473;SDS011;8865;47.636;7.692;2022-07-29T04:10:15;5.77;;;5.17;;
9473;SDS011;8865;47.636;7.692;2022-07-29T04:12:42;7.00;;;5.10;;
9473;SDS011;8865;47.636;7.692;2022-07-29T04:15:09;5.83;;;5.27;;
9473;SDS011;8865;47.636;7.692;2022-07-29T04:17:35;5.70;;;5.17;;
9473;SDS011;8865;47.636;7.692;2022-07-29T04:20:01;6.80;;;5.40;;
9473;SDS011;8865;47.636;7.692;2022-07-29T04:22:28;6.17;;;5.53;;
9473;SDS011;8865;47.636;7.692;2022-07-29T04:24:54;5.37;;;4.93;;
9473;SDS011;8865;47.636;7.692;2022-07-29T04:27:20;7.27;;;5.10;;
9473;SDS011;8865;47.636;7.692;2022-07-29T04:29:50;5.87;;;5.07;;
9473;SDS011;8865;47.636;7.692;2022-07-29T04:32:16;5.73;;;5.23;;
9473;SDS011;8865;47.636;7.692;2022-07-29T04:34:42;5.93;;;4.97;;
9473;SDS011;8865;47.636;7.692;2022-07-29T04:37:08;6.10;;;5.50;;
9473;SDS011;8865;47.636;7.692;2022-07-29T04:39:34;5.60;;;5.10;;
9473;SDS011;8865;47.636;7.692;2022-07-29T04:42:00;5.23;;;4.83;;
9473;SDS011;8865;47.636;7.692;2022-07-29T04:44:26;7.07;;;5.40;;
9473;SDS011;8865;47.636;7.692;2022-07-29T04:46:53;6.30;;;5.20;;
9473;SDS011;8865;47.636;7.692;2022-07-29T04:49:19;6.83;;;6.03;;
9473;SDS011;8865;47.636;7.692;2022-07-29T04:51:45;6.43;;;5.27;;
9473;SDS011;8865;47.636;7.692;2022-07-29T04:54:11;7.33;;;5.43;;
9473;SDS011;8865;47.636;7.692;2022-07-29T04:56:37;5.33;;;4.83;;
9473;SDS011;8865;47.636;7.692;2022-07-29T04:59:04;5.50;;;5.10;;
9473;SDS011;8865;47.636;7.692;2022-07-29T05:01:30;4.80;;;4.40;;
9473;SDS011;8865;47.636;7.692;2022-07-29T05:03:56;6.87;;;4.97;;
9473;SDS011;8865;47.636;7.692;2022-07-29T05:06:22;5.50;;;5.00;;
9473;SDS011;8865;47.636;7.692;2022-07-29T05:08:48;5.70;;;5.10;;
9473;SDS011;8865;47.636;7.692;2022-07-29T05:11:14;5.93;;;4.83;;
9473;SDS011;8865;47.636;7.692;2022-07-29T05:13:40;5.80;;;5.13;;
9473;SDS011;8865;47.636;7.692;2022-07-29T05:16:07;5.70;;;5.20;;
9473;SDS011;8865;47.636;7.692;2022-07-29T05:18:34;5.73;;;5.07;;
9473;SDS011;8865;47.636;7.692;2022-07-29T05:21:00;6.67;;;4.77;;
9473;SDS011;8865;47.636;7.692;2022-07-29T05:23:26;8.30;;;5.30;;
9473;SDS011;8865;47.636;7.692;2022-07-29T05:25:52;7.33;;;5.47;;
9473;SDS011;8865;47.636;7.692;2022-07-29T05:28:18;7.43;;;5.23;;
9473;SDS011;8865;47.636;7.692;2022-07-29T05:30:44;6.27;;;4.90;;
9473;SDS011;8865;47.636;7.692;2022-07-29T05:33:11;5.50;;;5.00;;
9473;SDS011;8865;47.636;7.692;2022-07-29T05:35:37;7.90;;;6.77;;
9473;SDS011;8865;47.636;7.692;2022-07-29T05:38:03;5.23;;;4.73;;
9473;SDS011;8865;47.636;7.692;2022-07-29T05:40:29;5.17;;;4.40;;
9473;SDS011;8865;47.636;7.692;2022-07-29T05:42:55;4.83;;;4.43;;
9473;SDS011;8865;47.636;7.692;2022-07-29T05:45:22;5.70;;;4.30;;
9473;SDS011;8865;47.636;7.692;2022-07-29T05:47:50;4.63;;;4.23;;
9473;SDS011;8865;47.636;7.692;2022-07-29T05:50:16;5.03;;;4.63;;
9473;SDS011;8865;47.636;7.692;2022-07-29T05:52:42;6.23;;;4.80;;
9473;SDS011;8865;47.636;7.692;2022-07-29T05:55:08;5.80;;;4.53;;
9473;SDS011;8865;47.636;7.692;2022-07-29T05:57:34;5.90;;;4.33;;
9473;SDS011;8865;47.636;7.692;2022-07-29T06:00:00;4.70;;;4.30;;
9473;SDS011;8865;47.636;7.692;2022-07-29T06:02:27;5.67;;;4.93;;
9473;SDS011;8865;47.636;7.692;2022-07-29T06:04:53;5.60;;;4.80;;
9473;SDS011;8865;47.636;7.692;2022-07-29T06:07:19;5.87;;;4.87;;
9473;SDS011;8865;47.636;7.692;2022-07-29T06:09:45;5.90;;;4.70;;
9473;SDS011;8865;47.636;7.692;2022-07-29T06:12:11;5.20;;;4.70;;
9473;SDS011;8865;47.636;7.692;2022-07-29T06:14:38;5.00;;;4.30;;
9473;SDS011;8865;47.636;7.692;2022-07-29T06:17:04;4.83;;;4.30;;
9473;SDS011;8865;47.636;7.692;2022-07-29T06:19:31;4.77;;;4.27;;
9473;SDS011;8865;47.636;7.692;2022-07-29T06:21:59;5.90;;;4.10;;
9473;SDS011;8865;47.636;7.692;2022-07-29T06:24:25;4.83;;;4.30;;
9473;SDS011;8865;47.636;7.692;2022-07-29T06:26:51;5.00;;;4.50;;
9473;SDS011;8865;47.636;7.692;2022-07-29T06:29:18;4.40;;;4.00;;
9473;SDS011;8865;47.636;7.692;2022-07-29T06:31:44;4.90;;;4.40;;
9473;SDS011;8865;47.636;7.692;2022-07-29T06:34:10;4.97;;;4.47;;
9473;SDS011;8865;47.636;7.692;2022-07-29T06:36:37;5.03;;;4.40;;
9473;SDS011;8865;47.636;7.692;2022-07-29T06:39:05;7.80;;;4.57;;
9473;SDS011;8865;47.636;7.692;2022-07-29T06:41:34;4.90;;;4.00;;
9473;SDS011;8865;47.636;7.692;2022-07-29T06:44:01;6.40;;;4.60;;
9473;SDS011;8865;47.636;7.692;2022-07-29T06:46:27;5.37;;;4.20;;
9473;SDS011;8865;47.636;7.692;2022-07-29T06:48:53;5.07;;;4.63;;
9473;SDS011;8865;47.636;7.692;2022-07-29T06:51:20;6.23;;;4.43;;
9473;SDS011;8865;47.636;7.692;2022-07-29T06:53:46;5.87;;;4.60;;
9473;SDS011;8865;47.636;7.692;2022-07-29T06:56:12;5.43;;;4.77;;
9473;SDS011;8865;47.636;7.692;2022-07-29T06:58:39;4.93;;;4.50;;
9473;SDS011;8865;47.636;7.692;2022-07-29T07:01:06;5.30;;;4.60;;
9473;SDS011;8865;47.636;7.692;2022-07-29T07:03:32;5.53;;;4.50;;
9473;SDS011;8865;47.636;7.692;2022-07-29T07:05:58;5.07;;;4.67;;
9473;SDS011;8865;47.636;7.692;2022-07-29T07:08:25;4.77;;;4.27;;
9473;SDS011;8865;47.636;7.692;2022-07-29T07:10:51;5.37;;;4.50;;
9473;SDS011;8865;47.636;7.692;2022-07-29T07:13:19;5.63;;;4.47;;
9473;SDS011;8865;47.636;7.692;2022-07-29T07:15:46;5.03;;;4.60;;
9473;SDS011;8865;47.636;7.692;2022-07-29T07:18:14;6.47;;;4.80;;
9473;SDS011;8865;47.636;7.692;2022-07-29T07:20:41;5.50;;;4.40;;
9473;SDS011;8865;47.636;7.692;2022-07-29T07:23:07;4.70;;;4.30;;
9473;SDS011;8865;47.636;7.692;2022-07-29T07:25:34;6.00;;;5.00;;
9473;SDS011;8865;47.636;7.692;2022-07-29T07:28:00;5.50;;;5.00;;
9473;SDS011;8865;47.636;7.692;2022-07-29T07:30:26;5.10;;;4.70;;
9473;SDS011;8865;47.636;7.692;2022-07-29T07:32:53;5.43;;;4.93;;
9473;SDS011;8865;47.636;7.692;2022-07-29T07:35:21;5.90;;;4.97;;
9473;SDS011;8865;47.636;7.692;2022-07-29T07:37:47;5.63;;;5.10;;
9473;SDS011;8865;47.636;7.692;2022-07-29T07:40:13;5.40;;;4.90;;
9473;SDS011;8865;47.636;7.692;2022-07-29T07:42:40;4.97;;;4.47;;
9473;SDS011;8865;47.636;7.692;2022-07-29T07:45:07;6.13;;;4.90;;
9473;SDS011;8865;47.636;7.692;2022-07-29T07:47:35;4.80;;;4.30;;
9473;SDS011;8865;47.636;7.692;2022-07-29T07:50:03;6.10;;;4.70;;
9473;SDS011;8865;47.636;7.692;2022-07-29T07:52:33;5.43;;;4.90;;
9473;SDS011;8865;47.636;7.692;2022-07-29T07:54:59;6.43;;;4.33;;
9473;SDS011;8865;47.636;7.692;2022-07-29T07:57:26;5.07;;;4.60;;
9473;SDS011;8865;47.636;7.692;2022-07-29T07:59:52;5.07;;;4.40;;
9473;SDS011;8865;47.636;7.692;2022-07-29T08:02:19;4.93;;;4.40;;
9473;SDS011;8865;47.636;7.692;2022-07-29T08:04:45;5.17;;;4.53;;
9473;SDS011;8865;47.636;7.692;2022-07-29T08:07:11;6.60;;;5.20;;
9473;SDS011;8865;47.636;7.692;2022-07-29T08:09:37;5.00;;;4.60;;
9473;SDS011;8865;47.636;7.692;2022-07-29T08:12:03;5.03;;;4.43;;
9473;SDS011;8865;47.636;7.692;2022-07-29T08:14:31;5.17;;;4.67;;
9473;SDS011;8865;47.636;7.692;2022-07-29T08:16:58;5.13;;;4.63;;
9473;SDS011;8865;47.636;7.692;2022-07-29T08:19:24;5.13;;;4.67;;
9473;SDS011;8865;47.636;7.692;2022-07-29T08:21:51;4.83;;;4.10;;
9473;SDS011;8865;47.636;7.692;2022-07-29T08:24:19;5.57;;;4.40;;
9473;SDS011;8865;47.636;7.692;2022-07-29T08:27:04;5.53;;;4.33;;
9473;SDS011;8865;47.636;7.692;2022-07-29T08:29:30;6.50;;;4.47;;
9473;SDS011;8865;47.636;7.692;2022-07-29T08:31:56;5.03;;;4.10;;
9473;SDS011;8865;47.636;7.692;2022-07-29T08:34:22;4.40;;;4.00;;
9473;SDS011;8865;47.636;7.692;2022-07-29T08:36:48;4.33;;;3.90;;
9473;SDS011;8865;47.636;7.692;2022-07-29T08:39:15;4.03;;;3.70;;
9473;SDS011;8865;47.636;7.692;2022-07-29T08:41:41;9.63;;;4.47;;
9473;SDS011;8865;47.636;7.692;2022-07-29T08:44:07;6.53;;;3.73;;
9473;SDS011;8865;47.636;7.692;2022-07-29T08:46:37;5.73;;;4.23;;
9473;SDS011;8865;47.636;7.692;2022-07-29T08:49:04;4.60;;;3.50;;
9473;SDS011;8865;47.636;7.692;2022-07-29T08:51:31;3.87;;;3.27;;
9473;SDS011;8865;47.636;7.692;2022-07-29T08:54:01;4.33;;;3.40;;
9473;SDS011;8865;47.636;7.692;2022-07-29T08:56:27;4.27;;;3.47;;
9473;SDS011;8865;47.636;7.692;2022-07-29T08:58:54;4.80;;;3.33;;
9473;SDS011;8865;47.636;7.692;2022-07-29T09:01:25;7.03;;;3.27;;
9473;SDS011;8865;47.636;7.692;2022-07-29T09:03:55;3.30;;;3.00;;
9473;SDS011;8865;47.636;7.692;2022-07-29T09:06:22;3.73;;;2.87;;
9473;SDS011;8865;47.636;7.692;2022-07-29T09:08:54;4.87;;;3.30;;
9473;SDS011;8865;47.636;7.692;2022-07-29T09:11:24;4.33;;;3.20;;
9473;SDS011;8865;47.636;7.692;2022-07-29T09:13:50;3.47;;;3.17;;
9473;SDS011;8865;47.636;7.692;2022-07-29T09:16:16;3.88;;;3.53;;
9473;SDS011;8865;47.636;7.692;2022-07-29T09:18:44;3.70;;;3.30;;
9473;SDS011;8865;47.636;7.692;2022-07-29T09:21:15;5.47;;;3.07;;
9473;SDS011;8865;47.636;7.692;2022-07-29T09:26:31;3.70;;;2.97;;
9473;SDS011;8865;47.636;7.692;2022-07-29T09:28:58;4.07;;;3.00;;
9473;SDS011;8865;47.636;7.692;2022-07-29T09:31:44;5.30;;;3.38;;
9473;SDS011;8865;47.636;7.692;2022-07-29T09:34:12;3.67;;;3.38;;
9473;SDS011;8865;47.636;7.692;2022-07-29T09:36:40;4.65;;;3.28;;
9473;SDS011;8865;47.636;7.692;2022-07-29T09:39:08;4.72;;;3.22;;
9473;SDS011;8865;47.636;7.692;2022-07-29T09:41:45;3.80;;;2.97;;
9473;SDS011;8865;47.636;7.692;2022-07-29T09:44:12;4.25;;;2.90;;
9473;SDS011;8865;47.636;7.692;2022-07-29T09:46:38;5.32;;;3.25;;
9473;SDS011;8865;47.636;7.692;2022-07-29T09:51:35;5.60;;;3.35;;
9473;SDS011;8865;47.636;7.692;2022-07-29T09:54:02;3.13;;;2.63;;
9473;SDS011;8865;47.636;7.692;2022-07-29T09:56:49;3.97;;;3.00;;
9473;SDS011;8865;47.636;7.692;2022-07-29T09:59:15;3.53;;;2.78;;
9473;SDS011;8865;47.636;7.692;2022-07-29T10:01:42;4.72;;;3.05;;
9473;SDS011;8865;47.636;7.692;2022-07-29T10:04:08;4.60;;;3.03;;
9473;SDS011;8865;47.636;7.692;2022-07-29T10:06:35;4.97;;;2.95;;
9473;SDS011;8865;47.636;7.692;2022-07-29T10:09:21;4.13;;;2.80;;
9473;SDS011;8865;47.636;7.692;2022-07-29T10:12:02;2.90;;;2.50;;
9473;SDS011;8865;47.636;7.692;2022-07-29T10:14:33;5.03;;;2.95;;
9473;SDS011;8865;47.636;7.692;2022-07-29T10:17:00;4.43;;;2.60;;
9473;SDS011;8865;47.636;7.692;2022-07-29T10:19:30;3.33;;;2.53;;
9473;SDS011;8865;47.636;7.692;2022-07-29T10:21:58;3.88;;;2.50;;
9473;SDS011;8865;47.636;7.692;2022-07-29T10:24:28;2.83;;;2.55;;
9473;SDS011;8865;47.636;7.692;2022-07-29T10:26:56;2.50;;;2.30;;
9473;SDS011;8865;47.636;7.692;2022-07-29T10:29:23;2.92;;;2.20;;
9473;SDS011;8865;47.636;7.692;2022-07-29T10:34:25;4.35;;;2.40;;
9473;SDS011;8865;47.636;7.692;2022-07-29T10:43:21;3.05;;;2.40;;
9473;SDS011;8865;47.636;7.692;2022-07-29T10:45:54;3.03;;;2.20;;
9473;SDS011;8865;47.636;7.692;2022-07-29T10:48:23;3.30;;;2.20;;
9473;SDS011;8865;47.636;7.692;2022-07-29T10:51:02;2.80;;;2.10;;
9473;SDS011;8865;47.636;7.692;2022-07-29T10:53:45;3.20;;;2.30;;
9473;SDS011;8865;47.636;7.692;2022-07-29T10:56:27;4.20;;;2.22;;
9473;SDS011;8865;47.636;7.692;2022-07-29T11:01:46;2.55;;;2.17;;
9473;SDS011;8865;47.636;7.692;2022-07-29T11:04:14;2.53;;;2.00;;
9473;SDS011;8865;47.636;7.692;2022-07-29T11:09:28;4.43;;;2.10;;
9473;SDS011;8865;47.636;7.692;2022-07-29T11:11:59;3.03;;;2.17;;
9473;SDS011;8865;47.636;7.692;2022-07-29T11:17:27;2.33;;;2.13;;
9473;SDS011;8865;47.636;7.692;2022-07-29T11:22:57;3.55;;;2.63;;
9473;SDS011;8865;47.636;7.692;2022-07-29T11:25:23;3.60;;;2.10;;
9473;SDS011;8865;47.636;7.692;2022-07-29T11:27:51;5.35;;;2.17;;
9473;SDS011;8865;47.636;7.692;2022-07-29T11:30:19;4.30;;;2.10;;
9473;SDS011;8865;47.636;7.692;2022-07-29T11:32:46;2.38;;;2.17;;
9473;SDS011;8865;47.636;7.692;2022-07-29T11:35:19;3.90;;;2.17;;
9473;SDS011;8865;47.636;7.692;2022-07-29T11:43:48;2.53;;;2.20;;
9473;SDS011;8865;47.636;7.692;2022-07-29T11:49:09;3.88;;;2.40;;
9473;SDS011;8865;47.636;7.692;2022-07-29T11:51:36;2.65;;;2.22;;
9473;SDS011;8865;47.636;7.692;2022-07-29T11:54:06;3.53;;;2.38;;
9473;SDS011;8865;47.636;7.692;2022-07-29T11:56:37;4.75;;;1.88;;
9473;SDS011;8865;47.636;7.692;2022-07-29T11:59:09;4.90;;;2.10;;
9473;SDS011;8865;47.636;7.692;2022-07-29T12:01:35;3.33;;;1.80;;
9473;SDS011;8865;47.636;7.692;2022-07-29T12:04:03;3.78;;;2.05;;
9473;SDS011;8865;47.636;7.692;2022-07-29T12:06:35;2.60;;;1.70;;
9473;SDS011;8865;47.636;7.692;2022-07-29T12:09:08;3.05;;;2.00;;
9473;SDS011;8865;47.636;7.692;2022-07-29T12:11:35;3.92;;;2.08;;
9473;SDS011;8865;47.636;7.692;2022-07-29T12:14:02;4.53;;;2.00;;
9473;SDS011;8865;47.636;7.692;2022-07-29T12:16:35;4.00;;;2.30;;
9473;SDS011;8865;47.636;7.692;2022-07-29T12:19:02;5.53;;;2.00;;
9473;SDS011;8865;47.636;7.692;2022-07-29T12:24:14;3.57;;;2.10;;
9473;SDS011;8865;47.636;7.692;2022-07-29T12:26:54;2.73;;;2.20;;
9473;SDS011;8865;47.636;7.692;2022-07-29T12:29:22;4.40;;;2.00;;
9473;SDS011;8865;47.636;7.692;2022-07-29T12:31:52;3.20;;;2.00;;
9473;SDS011;8865;47.636;7.692;2022-07-29T12:34:20;2.93;;;2.20;;
9473;SDS011;8865;47.636;7.692;2022-07-29T12:36:49;2.20;;;2.00;;
9473;SDS011;8865;47.636;7.692;2022-07-29T12:39:16;2.97;;;2.00;;
9473;SDS011;8865;47.636;7.692;2022-07-29T12:41:43;4.63;;;2.00;;
9473;SDS011;8865;47.636;7.692;2022-07-29T12:44:10;3.83;;;1.97;;
9473;SDS011;8865;47.636;7.692;2022-07-29T12:46:36;7.27;;;2.30;;
9473;SDS011;8865;47.636;7.692;2022-07-29T12:49:03;4.37;;;2.27;;
9473;SDS011;8865;47.636;7.692;2022-07-29T12:51:30;3.80;;;2.07;;
9473;SDS011;8865;47.636;7.692;2022-07-29T12:54:07;3.97;;;1.80;;
9473;SDS011;8865;47.636;7.692;2022-07-29T12:56:42;2.77;;;2.00;;
9473;SDS011;8865;47.636;7.692;2022-07-29T13:01:46;3.37;;;2.00;;
9473;SDS011;8865;47.636;7.692;2022-07-29T13:07:28;2.73;;;1.97;;
9473;SDS011;8865;47.636;7.692;2022-07-29T13:10:12;4.10;;;2.13;;
9473;SDS011;8865;47.636;7.692;2022-07-29T13:13:14;4.47;;;2.10;;
9473;SDS011;8865;47.636;7.692;2022-07-29T13:15:44;2.83;;;2.00;;
9473;SDS011;8865;47.636;7.692;2022-07-29T13:18:32;4.03;;;2.13;;
9473;SDS011;8865;47.636;7.692;2022-07-29T13:21:11;4.37;;;2.30;;
9473;SDS011;8865;47.636;7.692;2022-07-29T13:23:39;3.23;;;2.00;;
9473;SDS011;8865;47.636;7.692;2022-07-29T13:26:06;4.93;;;2.20;;
9473;SDS011;8865;47.636;7.692;2022-07-29T13:28:41;3.47;;;1.90;;
9473;SDS011;8865;47.636;7.692;2022-07-29T13:31:08;2.60;;;1.93;;
9473;SDS011;8865;47.636;7.692;2022-07-29T13:33:34;2.43;;;1.90;;
9473;SDS011;8865;47.636;7.692;2022-07-29T13:36:02;3.97;;;2.00;;
9473;SDS011;8865;47.636;7.692;2022-07-29T13:38:29;3.67;;;2.03;;
9473;SDS011;8865;47.636;7.692;2022-07-29T13:40:55;6.15;;;2.00;;
9473;SDS011;8865;47.636;7.692;2022-07-29T13:43:21;3.38;;;1.92;;
9473;SDS011;8865;47.636;7.692;2022-07-29T13:45:47;2.17;;;1.73;;
9473;SDS011;8865;47.636;7.692;2022-07-29T13:48:13;2.20;;;1.87;;
9473;SDS011;8865;47.636;7.692;2022-07-29T13:50:39;2.80;;;1.90;;
9473;SDS011;8865;47.636;7.692;2022-07-29T13:53:05;3.10;;;1.60;;
9473;SDS011;8865;47.636;7.692;2022-07-29T13:55:31;3.47;;;1.58;;
9473;SDS011;8865;47.636;7.692;2022-07-29T13:57:57;3.03;;;1.83;;
9473;SDS011;8865;47.636;7.692;2022-07-29T14:00:24;2.95;;;1.77;;
9473;SDS011;8865;47.636;7.692;2022-07-29T14:02:50;3.17;;;1.77;;
9473;SDS011;8865;47.636;7.692;2022-07-29T14:05:16;2.63;;;1.80;;
9473;SDS011;8865;47.636;7.692;2022-07-29T14:07:42;2.90;;;1.83;;
9473;SDS011;8865;47.636;7.692;2022-07-29T14:10:08;2.70;;;1.70;;
9473;SDS011;8865;47.636;7.692;2022-07-29T14:12:35;3.50;;;1.70;;
9473;SDS011;8865;47.636;7.692;2022-07-29T14:15:01;5.68;;;1.73;;
9473;SDS011;8865;47.636;7.692;2022-07-29T14:17:28;2.58;;;1.65;;
9473;SDS011;8865;47.636;7.692;2022-07-29T14:19:54;1.95;;;1.60;;
9473;SDS011;8865;47.636;7.692;2022-07-29T14:22:20;2.30;;;1.50;;
9473;SDS011;8865;47.636;7.692;2022-07-29T14:24:46;4.00;;;1.95;;
9473;SDS011;8865;47.636;7.692;2022-07-29T14:27:13;2.75;;;1.80;;
9473;SDS011;8865;47.636;7.692;2022-07-29T14:29:39;2.77;;;1.57;;
9473;SDS011;8865;47.636;7.692;2022-07-29T14:32:05;2.50;;;1.60;;
9473;SDS011;8865;47.636;7.692;2022-07-29T14:34:32;3.72;;;1.80;;
9473;SDS011;8865;47.636;7.692;2022-07-29T14:36:59;5.18;;;1.70;;
9473;SDS011;8865;47.636;7.692;2022-07-29T14:39:25;4.20;;;1.90;;
9473;SDS011;8865;47.636;7.692;2022-07-29T14:41:51;2.58;;;1.63;;
9473;SDS011;8865;47.636;7.692;2022-07-29T14:44:17;1.90;;;1.75;;
9473;SDS011;8865;47.636;7.692;2022-07-29T14:46:44;2.70;;;1.40;;
9473;SDS011;8865;47.636;7.692;2022-07-29T14:49:10;2.08;;;1.88;;
9473;SDS011;8865;47.636;7.692;2022-07-29T14:51:36;4.05;;;1.80;;
9473;SDS011;8865;47.636;7.692;2022-07-29T14:54:02;2.95;;;1.92;;
9473;SDS011;8865;47.636;7.692;2022-07-29T14:56:29;3.53;;;1.80;;
9473;SDS011;8865;47.636;7.692;2022-07-29T14:58:56;4.03;;;1.63;;
9473;SDS011;8865;47.636;7.692;2022-07-29T15:01:23;2.47;;;1.80;;
9473;SDS011;8865;47.636;7.692;2022-07-29T15:03:50;1.80;;;1.60;;
9473;SDS011;8865;47.636;7.692;2022-07-29T15:06:16;6.03;;;1.87;;
9473;SDS011;8865;47.636;7.692;2022-07-29T15:08:42;7.80;;;1.97;;
9473;SDS011;8865;47.636;7.692;2022-07-29T15:11:09;5.13;;;1.83;;
9473;SDS011;8865;47.636;7.692;2022-07-29T15:13:35;5.07;;;1.60;;
9473;SDS011;8865;47.636;7.692;2022-07-29T15:16:01;4.83;;;1.70;;
9473;SDS011;8865;47.636;7.692;2022-07-29T15:18:28;1.80;;;1.53;;
9473;SDS011;8865;47.636;7.692;2022-07-29T15:20:54;6.30;;;2.13;;
9473;SDS011;8865;47.636;7.692;2022-07-29T15:23:20;3.57;;;1.90;;
9473;SDS011;8865;47.636;7.692;2022-07-29T15:25:49;3.30;;;1.92;;
9473;SDS011;8865;47.636;7.692;2022-07-29T15:28:15;5.20;;;1.90;;
9473;SDS011;8865;47.636;7.692;2022-07-29T15:30:41;1.90;;;1.70;;
9473;SDS011;8865;47.636;7.692;2022-07-29T15:33:08;2.27;;;1.60;;
9473;SDS011;8865;47.636;7.692;2022-07-29T15:35:35;1.53;;;1.43;;
9473;SDS011;8865;47.636;7.692;2022-07-29T15:38:02;4.30;;;3.53;;
9473;SDS011;8865;47.636;7.692;2022-07-29T15:40:28;2.90;;;1.80;;
9473;SDS011;8865;47.636;7.692;2022-07-29T15:42:54;3.17;;;1.70;;
9473;SDS011;8865;47.636;7.692;2022-07-29T15:45:21;2.97;;;1.43;;
9473;SDS011;8865;47.636;7.692;2022-07-29T15:47:47;3.55;;;1.73;;
9473;SDS011;8865;47.636;7.692;2022-07-29T15:50:13;2.77;;;1.60;;
9473;SDS011;8865;47.636;7.692;2022-07-29T15:52:41;2.65;;;1.48;;
9473;SDS011;8865;47.636;7.692;2022-07-29T15:55:08;2.67;;;1.58;;
9473;SDS011;8865;47.636;7.692;2022-07-29T15:57:34;2.33;;;1.60;;
9473;SDS011;8865;47.636;7.692;2022-07-29T16:00:01;2.60;;;1.55;;
9473;SDS011;8865;47.636;7.692;2022-07-29T16:02:28;5.80;;;1.77;;
9473;SDS011;8865;47.636;7.692;2022-07-29T16:04:54;2.58;;;1.73;;
9473;SDS011;8865;47.636;7.692;2022-07-29T16:07:20;3.58;;;1.67;;
9473;SDS011;8865;47.636;7.692;2022-07-29T16:09:47;2.85;;;2.10;;
9473;SDS011;8865;47.636;7.692;2022-07-29T16:12:13;2.60;;;1.50;;
9473;SDS011;8865;47.636;7.692;2022-07-29T16:14:39;3.40;;;1.77;;
9473;SDS011;8865;47.636;7.692;2022-07-29T16:17:05;2.22;;;1.50;;